createdAt,value
2023-03-22T00:00:38.170Z,100965.34
2023-03-22T00:03:07.547Z,100968.97
2023-03-22T00:05:35.313Z,100960.44
2023-03-22T00:08:07.146Z,100990.13
2023-03-22T00:10:37.371Z,100972.19
2023-03-22T00:13:06.111Z,100968.28
2023-03-22T00:15:34.609Z,100970.47
2023-03-22T00:18:03.162Z,100990.16
2023-03-22T00:20:33.767Z,101040.34
2023-03-22T00:23:01.630Z,101045.72
2023-03-22T00:25:29.353Z,101043.94
2023-03-22T00:27:57.078Z,101043.44
2023-03-22T00:30:24.793Z,101061.66
2023-03-22T00:32:52.501Z,101068.84
2023-03-22T00:35:20.475Z,101038.63
2023-03-22T00:37:51.611Z,101031.88
2023-03-22T00:40:19.819Z,101024.03
2023-03-22T00:42:47.675Z,101027.69
2023-03-22T00:45:15.660Z,101031.25
2023-03-22T00:47:43.473Z,101027.31
2023-03-22T00:50:11.788Z,101031.88
2023-03-22T00:52:39.492Z,101028.03
2023-03-22T00:55:09.235Z,101044.19
2023-03-22T00:57:37.809Z,101050.69
2023-03-22T01:00:16.050Z,101037.28
2023-03-22T01:02:44.408Z,101027.91
2023-03-22T01:05:15.685Z,101020.41
2023-03-22T01:07:43.525Z,101038.13
2023-03-22T01:10:13.624Z,101026.00
2023-03-22T01:12:41.321Z,101015.00
2023-03-22T01:15:10.669Z,101033.66
2023-03-22T01:17:38.400Z,101039.00
2023-03-22T01:20:07.325Z,101033.59
2023-03-22T01:22:35.076Z,100991.91
2023-03-22T01:25:02.839Z,100999.38
2023-03-22T01:27:31.914Z,100983.31
2023-03-22T01:29:59.654Z,100960.00
2023-03-22T01:32:27.691Z,100972.53
2023-03-22T01:34:55.531Z,100964.69
2023-03-22T01:37:27.699Z,100990.91
2023-03-22T01:39:55.854Z,100992.59
2023-03-22T01:42:24.615Z,101003.44
2023-03-22T01:45:30.430Z,100999.22
2023-03-22T01:48:01.645Z,100983.94
2023-03-22T01:50:31.296Z,100972.78
2023-03-22T01:53:04.987Z,100982.44
2023-03-22T01:55:34.353Z,100978.88
2023-03-22T01:58:03.058Z,100986.81
2023-03-22T02:00:32.695Z,101008.94
2023-03-22T02:03:00.794Z,100998.03
2023-03-22T02:05:30.212Z,100995.34
2023-03-22T02:07:58.314Z,100999.19
2023-03-22T02:10:28.224Z,101007.97
2023-03-22T02:13:28.473Z,101018.56
2023-03-22T02:16:08.707Z,101007.31
2023-03-22T02:18:50.794Z,101002.13
2023-03-22T02:21:52.177Z,100999.97
2023-03-22T02:24:56.601Z,100988.47
2023-03-22T02:27:42.942Z,100969.00
2023-03-22T02:30:35.052Z,100981.56
2023-03-22T02:33:46.216Z,100990.06
2023-03-22T02:36:32.589Z,100977.72
2023-03-22T02:39:11.223Z,100980.84
2023-03-22T02:41:49.093Z,100995.63
2023-03-22T02:44:26.122Z,101000.22
2023-03-22T02:47:02.921Z,100983.34
2023-03-22T02:49:36.004Z,100973.28
2023-03-22T02:52:17.595Z,100967.19
2023-03-22T02:54:51.925Z,100971.25
2023-03-22T02:57:26.769Z,100985.84
2023-03-22T02:59:55.717Z,100980.81
2023-03-22T03:02:24.695Z,100952.38
2023-03-22T03:04:55.145Z,100938.75
2023-03-22T03:07:28.643Z,100934.78
2023-03-22T03:09:58.240Z,100925.88
2023-03-22T03:12:28.154Z,100932.03
2023-03-22T03:14:56.179Z,100919.56
2023-03-22T03:17:36.597Z,100916.63
2023-03-22T03:20:24.267Z,100927.25
2023-03-22T03:23:04.032Z,100909.66
2023-03-22T03:25:46.275Z,100917.00
2023-03-22T03:28:30.334Z,100911.69
2023-03-22T03:31:03.618Z,100917.38
2023-03-22T03:33:36.042Z,100922.84
2023-03-22T03:36:08.837Z,100919.47
2023-03-22T03:38:40.910Z,100900.00
2023-03-22T03:41:14.057Z,100883.16
2023-03-22T03:43:43.870Z,100890.28
2023-03-22T03:46:11.758Z,100887.69
2023-03-22T03:48:43.492Z,100898.97
2023-03-22T03:51:11.270Z,100877.78
2023-03-22T03:53:39.008Z,100868.59
2023-03-22T03:56:07.908Z,100872.06
2023-03-22T03:58:37.128Z,100851.56
2023-03-22T04:01:05.052Z,100857.81
2023-03-22T04:03:33.250Z,100858.16
2023-03-22T04:06:01.158Z,100846.25
2023-03-22T04:08:28.954Z,100831.25
2023-03-22T04:10:56.790Z,100808.97
2023-03-22T04:13:24.719Z,100803.66
2023-03-22T04:15:58.075Z,100801.47
2023-03-22T04:18:27.670Z,100801.72
2023-03-22T04:20:57.212Z,100791.72
2023-03-22T04:23:25.798Z,100798.09
2023-03-22T04:25:54.616Z,100811.91
2023-03-22T04:28:23.989Z,100821.31
2023-03-22T04:30:52.393Z,100831.81
2023-03-22T04:33:22.797Z,100842.50
2023-03-22T04:35:56.644Z,100839.69
2023-03-22T04:38:25.240Z,100831.34
2023-03-22T04:40:53.289Z,100840.56
2023-03-22T04:43:21.006Z,100839.59
2023-03-22T04:45:48.888Z,100827.19
2023-03-22T04:48:17.601Z,100838.75
2023-03-22T04:50:46.756Z,100848.31
2023-03-22T04:53:14.648Z,100862.06
2023-03-22T04:55:43.605Z,100860.59
2023-03-22T04:58:11.406Z,100846.41
2023-03-22T05:00:42.358Z,100821.63
2023-03-22T05:03:10.409Z,100799.22
2023-03-22T05:05:38.174Z,100802.81
2023-03-22T05:08:07.820Z,100842.72
2023-03-22T05:10:35.599Z,100836.97
2023-03-22T05:13:03.406Z,100838.34
2023-03-22T05:15:32.433Z,100828.84
2023-03-22T05:18:00.310Z,100839.50
2023-03-22T05:20:28.049Z,100858.91
2023-03-22T05:22:56.896Z,100858.81
2023-03-22T05:25:26.134Z,100854.88
2023-03-22T05:27:54.250Z,100846.63
2023-03-22T05:30:22.260Z,100876.03
2023-03-22T05:32:50.377Z,100865.38
2023-03-22T05:35:18.229Z,100856.69
2023-03-22T05:37:45.929Z,100852.97
2023-03-22T05:40:13.765Z,100848.22
2023-03-22T05:42:42.927Z,100849.75
2023-03-22T05:45:12.162Z,100824.97
2023-03-22T05:47:39.998Z,100807.97
2023-03-22T05:50:11.189Z,100815.22
2023-03-22T05:52:39.593Z,100800.59
2023-03-22T05:55:08.442Z,100779.16
2023-03-22T05:57:36.222Z,100773.31
2023-03-22T06:00:09.745Z,100751.53
2023-03-22T06:02:37.869Z,100740.25
2023-03-22T06:05:06.684Z,100716.44
2023-03-22T06:07:34.516Z,100698.72
2023-03-22T06:10:02.265Z,100674.00
2023-03-22T06:12:30.287Z,100678.22
2023-03-22T06:14:58.348Z,100673.00
2023-03-22T06:17:27.924Z,100663.41
2023-03-22T06:19:55.827Z,100685.41
2023-03-22T06:22:24.072Z,100681.78
2023-03-22T06:24:51.948Z,100670.31
2023-03-22T06:27:19.713Z,100650.41
2023-03-22T06:29:50.874Z,100642.97
2023-03-22T06:32:19.075Z,100650.53
2023-03-22T06:34:48.247Z,100667.28
2023-03-22T06:37:16.383Z,100622.63
2023-03-22T06:39:44.602Z,100627.94
2023-03-22T06:42:12.331Z,100597.78
2023-03-22T06:44:42.321Z,100570.06
2023-03-22T06:47:10.097Z,100539.19
2023-03-22T06:49:37.934Z,100544.88
2023-03-22T06:52:07.181Z,100544.81
2023-03-22T06:54:35.296Z,100520.50
2023-03-22T06:57:03.114Z,100469.81
2023-03-22T06:59:30.994Z,100451.41
2023-03-22T07:01:58.807Z,100434.44
2023-03-22T07:04:28.197Z,100436.47
2023-03-22T07:06:56.376Z,100450.09
2023-03-22T07:09:26.870Z,100436.19
2023-03-22T07:11:54.634Z,100421.78
2023-03-22T07:14:22.369Z,100376.13
2023-03-22T07:16:50.079Z,100373.03
2023-03-22T07:19:18.489Z,100365.47
2023-03-22T07:21:46.253Z,100365.66
2023-03-22T07:24:14.113Z,100369.41
2023-03-22T07:26:43.217Z,100355.13
2023-03-22T07:29:11.303Z,100370.56
2023-03-22T07:31:40.079Z,100340.97
2023-03-22T07:34:08.220Z,100306.94
2023-03-22T07:36:38.128Z,100290.06
2023-03-22T07:39:06.123Z,100305.44
2023-03-22T07:41:34.019Z,100251.25
2023-03-22T07:44:16.878Z,100274.91
2023-03-22T07:46:45.384Z,100259.59
2023-03-22T07:49:13.215Z,100254.06
2023-03-22T07:51:40.983Z,100233.00
2023-03-22T07:54:08.685Z,100229.19
2023-03-22T07:56:37.017Z,100199.63
2023-03-22T07:59:06.396Z,100216.91
2023-03-22T08:01:34.335Z,100208.78
2023-03-22T08:04:02.106Z,100209.28
2023-03-22T08:06:29.855Z,100191.88
2023-03-22T08:08:57.587Z,100164.22
2023-03-22T08:11:25.650Z,100176.75
2023-03-22T08:13:54.464Z,100156.50
2023-03-22T08:16:23.739Z,100154.34
2023-03-22T08:18:51.524Z,100155.94
2023-03-22T08:21:19.260Z,100124.94
2023-03-22T08:23:48.809Z,100134.75
2023-03-22T08:26:17.827Z,100122.84
2023-03-22T08:28:45.572Z,100100.84
2023-03-22T08:31:15.468Z,100106.16
2023-03-22T08:33:45.182Z,100126.44
2023-03-22T08:36:15.152Z,100107.63
2023-03-22T08:38:45.187Z,100106.16
2023-03-22T08:41:13.139Z,100096.16
2023-03-22T08:43:40.981Z,100073.69
2023-03-22T08:46:09.397Z,100127.31
2023-03-22T08:48:37.983Z,100083.94
2023-03-22T08:51:07.802Z,100081.38
2023-03-22T08:53:35.552Z,100076.84
2023-03-22T08:56:04.048Z,100050.38
2023-03-22T08:58:31.911Z,100058.50
2023-03-22T09:00:59.797Z,100037.31
2023-03-22T09:03:27.610Z,100035.38
2023-03-22T09:05:55.455Z,100028.00
2023-03-22T09:08:24.556Z,100018.94
2023-03-22T09:10:52.508Z,100009.13
2023-03-22T09:13:21.144Z,100013.59
2023-03-22T09:15:49.146Z,100003.97
2023-03-22T09:18:17.162Z,100000.50
2023-03-22T09:20:45.786Z,99990.94
2023-03-22T09:23:14.977Z,99995.25
2023-03-22T09:25:46.249Z,99995.50
2023-03-22T09:28:14.675Z,99991.97
2023-03-22T09:30:42.608Z,100000.47
2023-03-22T09:33:10.425Z,99985.66
2023-03-22T09:35:42.677Z,99996.75
2023-03-22T09:38:12.200Z,99972.53
2023-03-22T09:40:51.618Z,99966.66
2023-03-22T09:43:21.366Z,99957.84
2023-03-22T09:45:52.814Z,99960.41
2023-03-22T09:48:23.353Z,99956.06
2023-03-22T09:50:53.992Z,99945.38
2023-03-22T09:53:25.538Z,99933.03
2023-03-22T09:56:01.310Z,99936.75
2023-03-22T09:58:34.223Z,99943.25
2023-03-22T10:01:05.613Z,99954.72
2023-03-22T10:03:58.653Z,99926.50
2023-03-22T10:06:29.396Z,99923.00
2023-03-22T10:09:04.599Z,99920.81
2023-03-22T10:11:45.583Z,99916.09
2023-03-22T10:14:27.876Z,99909.94
2023-03-22T10:16:57.233Z,99926.53
2023-03-22T10:19:28.640Z,99916.94
2023-03-22T10:21:59.129Z,99912.22
2023-03-22T10:24:30.798Z,99913.56
2023-03-22T10:27:00.020Z,99901.78
2023-03-22T10:29:33.386Z,99905.47
2023-03-22T10:32:14.508Z,99919.41
2023-03-22T10:34:43.654Z,99897.75
2023-03-22T10:37:15.720Z,99896.22
2023-03-22T10:39:47.393Z,99887.59
2023-03-22T10:42:18.787Z,99896.19
2023-03-22T10:44:50.448Z,99900.69
2023-03-22T10:47:24.965Z,99907.91
2023-03-22T10:49:57.418Z,99817.34
2023-03-22T10:52:37.669Z,100208.81
2023-03-22T10:55:07.649Z,100242.78
2023-03-22T10:57:36.737Z,100290.47
2023-03-22T11:00:10.102Z,100260.88
2023-03-22T11:02:47.280Z,100292.59
2023-03-22T11:05:23.843Z,100268.63
2023-03-22T11:07:52.535Z,100243.06
2023-03-22T11:10:28.810Z,100267.28
2023-03-22T11:13:13.208Z,100275.97
2023-03-22T11:15:43.376Z,100280.03
2023-03-22T11:18:15.812Z,100276.63
2023-03-22T11:20:55.466Z,100302.81
2023-03-22T11:23:25.243Z,100289.03
2023-03-22T11:25:57.478Z,100298.41
2023-03-22T11:28:34.018Z,100321.41
2023-03-22T11:31:05.432Z,100332.16
2023-03-22T11:33:34.218Z,100337.06
2023-03-22T11:36:05.580Z,100333.63
2023-03-22T11:38:38.629Z,100329.44
2023-03-22T11:41:09.695Z,100328.94
2023-03-22T11:43:42.264Z,100353.38
2023-03-22T11:46:10.830Z,100338.31
2023-03-22T11:48:41.913Z,100299.41
2023-03-22T11:51:13.134Z,100290.13
2023-03-22T11:53:43.390Z,100276.72
2023-03-22T11:56:14.658Z,100249.56
2023-03-22T11:59:04.185Z,100261.28
2023-03-22T12:01:39.760Z,100239.34
2023-03-22T12:04:12.604Z,100265.06
2023-03-22T12:06:41.818Z,100289.78
2023-03-22T12:09:22.766Z,100299.53
2023-03-22T12:11:54.132Z,100308.28
2023-03-22T12:14:28.179Z,100294.72
2023-03-22T12:17:01.071Z,100313.22
2023-03-22T12:19:42.948Z,100324.13
2023-03-22T12:22:14.027Z,100320.19
2023-03-22T12:24:42.973Z,100329.53
2023-03-22T12:27:18.006Z,100332.88
2023-03-22T12:29:53.128Z,100343.84
2023-03-22T12:32:25.817Z,100345.41
2023-03-22T12:35:01.362Z,100358.50
2023-03-22T12:37:39.136Z,100340.66
2023-03-22T12:40:10.089Z,100339.56
2023-03-22T12:42:50.815Z,100353.25
2023-03-22T12:45:25.893Z,100354.53
2023-03-22T12:48:00.576Z,100318.19
2023-03-22T12:50:35.204Z,100340.81
2023-03-22T12:53:04.485Z,100323.44
2023-03-22T12:55:35.027Z,100328.00
2023-03-22T12:58:03.259Z,100340.00
2023-03-22T13:00:37.689Z,100336.22
2023-03-22T13:03:18.754Z,100345.03
2023-03-22T13:05:48.631Z,100361.31
2023-03-22T13:08:21.526Z,100351.00
2023-03-22T13:10:59.578Z,100344.50
2023-03-22T13:13:43.631Z,100373.13
2023-03-22T13:16:48.678Z,100361.06
2023-03-22T13:19:33.044Z,100364.66
2023-03-22T13:22:22.847Z,100346.91
2023-03-22T13:25:28.975Z,100381.13
2023-03-22T13:27:58.635Z,100362.91
2023-03-22T13:30:32.414Z,100356.19
2023-03-22T13:33:09.779Z,100366.41
2023-03-22T13:35:44.923Z,100367.59
2023-03-22T13:38:21.089Z,100365.38
2023-03-22T13:40:54.611Z,100376.81
2023-03-22T13:43:28.369Z,100363.34
2023-03-22T13:46:29.055Z,100363.66
2023-03-22T13:49:28.245Z,100370.00
2023-03-22T13:51:59.993Z,100368.34
2023-03-22T13:54:36.812Z,100381.84
2023-03-22T13:57:05.075Z,100374.97
2023-03-22T14:00:06.868Z,100358.00
2023-03-22T14:02:42.112Z,100358.97
2023-03-22T14:05:17.770Z,100356.94
2023-03-22T14:07:51.272Z,100361.88
2023-03-22T14:10:23.284Z,100358.41
2023-03-22T14:12:54.836Z,100350.78
2023-03-22T14:15:26.590Z,100354.34
2023-03-22T14:18:00.680Z,100339.53
2023-03-22T14:20:36.883Z,100346.09
